Time;durP1;ratioP1;P1;durP2;ratioP2;P2;SDS_P1;SDS_P2;PMS_P1;PMS_P2;Temp;Humidity;BMP_temperature;BMP_pressure;BME280_temperature;BME280_humidity;BME280_pressure;Samples;Min_cycle;Max_cycle;Signal;HPM_P1;HPM_P2
2023/03/27 00:02:27;;;;;;;7.70;4.20;;;;;;;8.26;59.72;99237.00;105492;1257;62655;-62
2023/03/27 00:04:56;;;;;;;7.30;4.50;;;;;;;8.21;59.88;99233.40;105401;1258;64668;-63
2023/03/27 00:07:40;;;;;;;8.70;4.30;;;;;;;8.13;59.91;99230.23;105537;1259;59676;-65
2023/03/27 00:10:12;;;;;;;7.30;4.50;;;;;;;8.02;59.87;99228.40;105137;1263;59743;-64
2023/03/27 00:12:46;;;;;;;7.60;4.70;;;;;;;7.91;60.02;99229.04;105390;1258;65369;-62
2023/03/27 00:15:18;;;;;;;9.10;4.90;;;;;;;7.78;59.95;99226.61;105340;1262;61506;-64
2023/03/27 00:17:49;;;;;;;7.60;4.80;;;;;;;7.65;60.12;99229.65;105378;1256;64933;-63
2023/03/27 00:20:25;;;;;;;8.70;4.80;;;;;;;7.55;60.46;99230.36;105385;1257;59686;-63
2023/03/27 00:22:59;;;;;;;7.70;4.10;;;;;;;7.47;60.75;99233.01;105469;1257;59775;-63
2023/03/27 00:25:28;;;;;;;5.30;1.40;;;;;;;7.42;60.80;99232.55;105452;1257;64157;-62
2023/03/27 00:28:03;;;;;;;7.20;3.40;;;;;;;7.42;60.87;99233.23;105434;1257;62616;-63
2023/03/27 00:30:32;;;;;;;6.70;3.80;;;;;;;7.45;61.12;99234.04;105419;1257;73678;-64
2023/03/27 00:33:01;;;;;;;4.50;1.90;;;;;;;7.46;61.29;99232.94;105524;1257;59698;-64
2023/03/27 00:35:30;;;;;;;7.30;3.90;;;;;;;7.44;61.27;99229.77;105428;1257;59666;-62
2023/03/27 00:37:58;;;;;;;6.30;3.70;;;;;;;7.41;61.47;99226.17;105409;1259;65823;-64
2023/03/27 00:40:26;;;;;;;7.80;4.00;;;;;;;7.39;61.59;99227.88;105352;1257;62390;-63
2023/03/27 00:42:56;;;;;;;7.00;4.40;;;;;;;7.37;61.96;99230.02;105478;1258;64902;-62
2023/03/27 00:45:29;;;;;;;7.60;4.50;;;;;;;7.32;62.03;99228.37;105480;1255;59567;-64
2023/03/27 00:48:00;;;;;;;5.70;1.80;;;;;;;7.25;61.85;99226.43;105438;1257;59554;-62
2023/03/27 00:50:35;;;;;;;7.00;4.30;;;;;;;7.18;61.86;99226.69;105475;1257;65236;-63
2023/03/27 00:53:13;;;;;;;3.60;1.60;;;;;;;7.13;61.94;99226.60;105532;1256;61627;-63
2023/03/27 00:55:44;;;;;;;8.60;4.10;;;;;;;7.17;62.42;99229.77;105379;1257;65098;-63
2023/03/27 00:58:16;;;;;;;6.90;3.80;;;;;;;7.25;62.54;99231.35;105370;1256;60412;-63
2023/03/27 01:00:44;;;;;;;7.50;4.00;;;;;;;7.34;62.60;99237.27;105342;1256;59734;-63
2023/03/27 01:03:13;;;;;;;8.00;4.30;;;;;;;7.38;62.69;99238.97;105456;1256;65340;-62
2023/03/27 01:05:42;;;;;;;6.70;3.80;;;;;;;7.42;62.76;99238.66;105358;1257;62197;-62
2023/03/27 01:08:11;;;;;;;7.20;4.20;;;;;;;7.45;62.75;99236.66;105398;1257;65200;-65
2023/03/27 01:10:43;;;;;;;6.90;4.40;;;;;;;7.44;62.71;99236.18;105398;1257;59634;-63
2023/03/27 01:13:23;;;;;;;7.00;4.00;;;;;;;7.42;62.72;99240.70;105379;1257;59692;-63
2023/03/27 01:16:44;;;;;;;7.00;4.10;;;;;;;7.40;62.72;99238.78;105487;1259;65001;-63
2023/03/27 01:19:28;;;;;;;4.40;1.90;;;;;;;7.37;62.68;99238.74;105019;1257;62672;-63
2023/03/27 01:22:26;;;;;;;3.00;1.00;;;;;;;7.40;62.61;99238.67;105471;1256;64827;-65
2023/03/27 01:25:16;;;;;;;6.10;3.70;;;;;;;7.43;62.39;99237.17;105271;1257;59646;-63
2023/03/27 01:28:11;;;;;;;6.10;3.80;;;;;;;7.46;62.44;99240.75;105459;1257;59746;-63
2023/03/27 01:30:50;;;;;;;6.70;3.80;;;;;;;7.46;62.55;99242.01;105274;1262;65511;-61
2023/03/27 01:33:37;;;;;;;9.40;3.80;;;;;;;7.43;62.60;99238.88;105493;1256;62688;-64
2023/03/27 01:36:28;;;;;;;9.80;4.20;;;;;;;7.41;62.56;99236.30;105660;1257;64849;-61
2023/03/27 01:39:01;;;;;;;8.10;3.80;;;;;;;7.36;62.55;99229.35;105364;1256;60574;-64
2023/03/27 01:41:31;;;;;;;5.00;1.90;;;;;;;7.35;62.64;99230.73;105691;1256;60889;-62
2023/03/27 01:44:08;;;;;;;6.20;3.60;;;;;;;7.31;62.34;99237.83;105481;1259;66324;-64
2023/03/27 01:46:55;;;;;;;6.10;3.70;;;;;;;7.24;62.37;99243.60;105356;1257;62346;-63
2023/03/27 01:49:28;;;;;;;5.40;1.60;;;;;;;7.19;62.66;99240.41;105164;1257;65191;-63
2023/03/27 01:52:01;;;;;;;5.80;3.70;;;;;;;7.21;62.57;99237.25;105419;1256;60487;-63
2023/03/27 01:54:37;;;;;;;6.30;3.60;;;;;;;7.24;62.46;99237.18;105464;1257;60476;-63
2023/03/27 01:57:23;;;;;;;7.20;3.60;;;;;;;7.28;62.43;99237.08;105377;1256;65872;-62
2023/03/27 02:00:11;;;;;;;6.70;4.00;;;;;;;7.29;62.54;99232.64;105386;1260;63100;-62
2023/03/27 02:02:53;;;;;;;7.20;4.00;;;;;;;7.28;62.67;99230.58;105462;1260;64028;-63
2023/03/27 02:05:43;;;;;;;8.40;3.80;;;;;;;7.27;62.61;99232.60;105288;1257;60636;-63
2023/03/27 02:08:28;;;;;;;6.80;4.00;;;;;;;7.22;62.55;99230.19;105355;1259;60450;-64
2023/03/27 02:11:05;;;;;;;4.70;2.10;;;;;;;7.14;62.35;99230.70;105276;1256;66074;-65
2023/03/27 02:13:53;;;;;;;7.70;4.10;;;;;;;7.06;62.39;99234.36;105152;1257;62798;-64
2023/03/27 02:16:24;;;;;;;8.50;4.20;;;;;;;6.97;62.53;99239.45;105409;1256;65129;-65
2023/03/27 02:18:58;;;;;;;4.50;2.10;;;;;;;6.90;62.69;99243.30;105355;1263;62094;-64
2023/03/27 02:21:26;;;;;;;7.30;3.70;;;;;;;6.90;62.68;99247.90;105407;1257;60565;-64
2023/03/27 02:24:00;;;;;;;4.00;1.40;;;;;;;6.91;62.68;99247.61;105497;1257;64945;-66
2023/03/27 02:26:29;;;;;;;4.60;1.40;;;;;;;6.92;62.66;99252.05;105478;1257;62813;-64
2023/03/27 02:29:17;;;;;;;6.80;3.10;;;;;;;6.94;62.53;99256.95;105461;1257;65068;-62
2023/03/27 02:32:37;;;;;;;6.60;3.60;;;;;;;6.92;62.57;99259.21;105412;1257;60538;-63
2023/03/27 02:35:44;;;;;;;7.20;2.50;;;;;;;6.87;62.53;99261.85;104961;1262;60673;-64
2023/03/27 02:38:22;;;;;;;4.80;1.70;;;;;;;6.83;62.67;99261.70;104977;1261;66124;-63
2023/03/27 02:40:57;;;;;;;8.20;3.80;;;;;;;6.79;62.84;99262.04;105058;1266;61700;-64
2023/03/27 02:43:55;;;;;;;5.10;1.60;;;;;;;6.73;62.77;99258.65;105298;1259;65033;-66
2023/03/27 02:46:58;;;;;;;4.30;1.30;;;;;;;6.65;62.85;99262.61;105375;1254;61725;-62
2023/03/27 02:49:30;;;;;;;6.00;3.40;;;;;;;6.56;62.80;99265.30;105356;1260;60365;-63
2023/03/27 02:52:05;;;;;;;6.90;3.40;;;;;;;6.45;62.83;99272.29;105550;1259;66190;-66
2023/03/27 02:54:37;;;;;;;6.00;1.90;;;;;;;6.41;62.96;99271.23;105418;1261;70335;-64
2023/03/27 02:57:13;;;;;;;5.70;3.00;;;;;;;6.43;63.22;99273.62;105359;1256;65060;-66
2023/03/27 03:00:04;;;;;;;4.60;1.70;;;;;;;6.48;63.38;99281.45;105440;1256;60525;-64
2023/03/27 03:02:36;;;;;;;4.10;1.70;;;;;;;6.48;63.37;99285.77;105356;1260;60443;-63
2023/03/27 03:05:07;;;;;;;7.80;3.40;;;;;;;6.49;63.54;99295.69;105284;1262;65932;-65
2023/03/27 03:07:39;;;;;;;7.10;3.80;;;;;;;6.47;63.52;99301.52;105387;1261;61485;-63
2023/03/27 03:10:10;;;;;;;7.60;3.90;;;;;;;6.44;63.43;99305.04;105331;1256;64686;-65
2023/03/27 03:12:39;;;;;;;5.70;2.40;;;;;;;6.39;63.35;99307.37;105369;1256;60444;-61
2023/03/27 03:15:09;;;;;;;7.40;3.80;;;;;;;6.33;63.41;99307.89;105380;1256;60467;-66
2023/03/27 03:17:37;;;;;;;3.10;1.30;;;;;;;6.26;63.51;99306.68;105426;1262;66403;-63
2023/03/27 03:20:12;;;;;;;8.40;3.60;;;;;;;6.28;63.73;99305.69;105443;1257;62607;-64
2023/03/27 03:22:42;;;;;;;4.70;1.30;;;;;;;6.31;63.57;99305.93;105341;1257;64015;-65
2023/03/27 03:25:13;;;;;;;5.90;3.40;;;;;;;6.33;63.51;99305.98;105433;1257;60568;-65
2023/03/27 03:27:43;;;;;;;6.00;3.30;;;;;;;6.33;63.42;99309.80;105413;1257;61466;-65
2023/03/27 03:30:12;;;;;;;3.40;1.50;;;;;;;6.30;63.35;99307.39;105420;1257;65246;-64
2023/03/27 03:33:19;;;;;;;5.90;2.10;;;;;;;6.27;63.58;99307.15;105398;1257;62715;-65
2023/03/27 03:35:49;;;;;;;5.40;1.90;;;;;;;6.25;63.57;99308.70;105451;1257;65053;-65
2023/03/27 03:38:28;;;;;;;7.90;4.00;;;;;;;6.22;63.53;99310.38;105435;1256;60445;-66
2023/03/27 03:41:06;;;;;;;5.60;1.60;;;;;;;6.17;63.49;99305.55;105433;1259;60562;-68
2023/03/27 03:43:34;;;;;;;5.90;3.70;;;;;;;6.11;63.67;99303.71;105406;1258;66131;-64
2023/03/27 03:46:04;;;;;;;7.00;3.70;;;;;;;6.06;63.76;99307.20;105427;1256;62448;-65
2023/03/27 03:48:32;;;;;;;6.50;2.10;;;;;;;6.02;63.84;99311.75;105408;1261;64950;-65
2023/03/27 03:51:02;;;;;;;6.50;3.40;;;;;;;6.01;63.86;99313.02;105412;1257;60557;-67
2023/03/27 03:53:30;;;;;;;4.30;1.70;;;;;;;6.04;63.82;99308.79;105393;1256;60454;-65
2023/03/27 03:55:58;;;;;;;7.10;3.40;;;;;;;6.05;63.86;99310.04;105723;1257;66138;-64
2023/03/27 03:58:27;;;;;;;4.20;1.20;;;;;;;6.07;63.80;99311.52;105428;1257;70924;-64
2023/03/27 04:01:04;;;;;;;7.90;2.40;;;;;;;6.07;63.96;99313.79;105390;1257;64996;-66
2023/03/27 04:03:44;;;;;;;6.40;1.80;;;;;;;6.08;64.10;99316.64;105473;1256;60566;-65
2023/03/27 04:06:16;;;;;;;6.40;4.10;;;;;;;6.08;64.08;99316.77;105316;1257;60561;-66
2023/03/27 04:08:48;;;;;;;6.70;2.50;;;;;;;6.11;64.16;99320.94;105411;1257;64923;-65
2023/03/27 04:11:36;;;;;;;7.50;2.00;;;;;;;6.10;64.55;99322.56;105438;1257;62641;-62
2023/03/27 04:14:18;;;;;;;6.00;3.80;;;;;;;6.07;64.75;99326.27;105443;1259;64941;-61
2023/03/27 04:16:49;;;;;;;6.70;1.90;;;;;;;6.03;64.70;99330.63;105379;1257;60473;-60
2023/03/27 04:19:23;;;;;;;6.40;3.80;;;;;;;6.03;64.58;99334.12;105618;1259;60552;-62
2023/03/27 04:22:00;;;;;;;4.70;1.70;;;;;;;6.06;64.57;99334.20;105645;1257;64868;-62
2023/03/27 04:24:33;;;;;;;6.20;3.50;;;;;;;6.14;64.88;99337.95;105381;1257;62643;-61
2023/03/27 04:27:02;;;;;;;3.90;1.50;;;;;;;6.23;64.86;99342.11;105442;1261;65043;-61
2023/03/27 04:29:53;;;;;;;7.40;4.10;;;;;;;6.29;64.86;99340.92;105579;1257;60558;-60
2023/03/27 04:32:49;;;;;;;7.80;3.80;;;;;;;6.33;64.99;99341.16;105243;1257;60541;-61
2023/03/27 04:35:38;;;;;;;5.10;1.80;;;;;;;6.36;64.99;99335.73;105428;1259;66188;-63
2023/03/27 04:38:15;;;;;;;7.60;4.40;;;;;;;6.38;64.96;99331.55;105457;1256;62270;-62
2023/03/27 04:40:48;;;;;;;5.50;2.30;;;;;;;6.40;64.85;99327.03;105378;1257;65124;-63
2023/03/27 04:43:19;;;;;;;7.10;3.70;;;;;;;6.41;64.81;99327.64;105483;1256;60602;-61
2023/03/27 04:45:47;;;;;;;4.60;1.90;;;;;;;6.42;64.84;99324.75;105468;1257;60438;-61
2023/03/27 04:48:17;;;;;;;10.40;4.40;;;;;;;6.49;64.86;99323.66;105456;1259;66315;-61
2023/03/27 04:50:49;;;;;;;6.20;3.90;;;;;;;6.61;64.79;99329.58;105503;1257;62345;-61
2023/03/27 04:53:31;;;;;;;8.10;4.10;;;;;;;6.70;64.63;99330.38;105471;1260;64723;-60
2023/03/27 04:56:01;;;;;;;4.50;1.60;;;;;;;6.77;64.68;99330.86;105483;1256;60546;-60
2023/03/27 04:58:32;;;;;;;6.70;4.30;;;;;;;6.84;64.65;99330.95;105541;1257;60645;-62
2023/03/27 05:01:08;;;;;;;6.80;4.20;;;;;;;6.92;64.57;99328.59;105495;1259;65982;-61
2023/03/27 05:03:40;;;;;;;8.40;4.60;;;;;;;6.97;64.46;99331.39;105434;1257;62638;-62
2023/03/27 05:06:20;;;;;;;5.00;2.40;;;;;;;7.00;64.57;99337.00;105432;1257;64875;-62
2023/03/27 05:08:50;;;;;;;6.60;4.00;;;;;;;7.04;64.48;99337.88;105447;1258;60437;-60
2023/03/27 05:11:31;;;;;;;7.80;4.20;;;;;;;7.08;64.30;99338.98;105457;1256;60502;-61
2023/03/27 05:14:03;;;;;;;4.70;1.50;;;;;;;7.15;64.23;99343.25;105478;1257;66352;-62
2023/03/27 05:16:34;;;;;;;8.60;5.00;;;;;;;7.25;64.15;99349.42;105459;1257;62588;-63
2023/03/27 05:19:04;;;;;;;7.10;3.40;;;;;;;7.37;64.03;99348.80;105430;1257;64240;-62
2023/03/27 05:21:42;;;;;;;5.80;3.50;;;;;;;7.44;63.82;99348.54;105543;1259;60485;-61
2023/03/27 05:24:12;;;;;;;6.60;4.00;;;;;;;7.49;63.72;99352.38;105590;1256;60463;-61
2023/03/27 05:26:41;;;;;;;6.50;3.90;;;;;;;7.55;63.70;99351.67;105432;1256;74799;-61
2023/03/27 05:29:10;;;;;;;7.30;4.50;;;;;;;7.61;63.51;99354.45;105381;1260;61741;-61
2023/03/27 05:31:40;;;;;;;4.60;2.20;;;;;;;7.67;63.26;99363.43;105305;1257;73575;-63
2023/03/27 05:34:37;;;;;;;8.00;5.50;;;;;;;7.70;63.29;99365.59;105258;1254;60388;-62
2023/03/27 05:37:06;;;;;;;8.10;4.60;;;;;;;7.73;63.05;99363.05;105467;1258;60501;-62
2023/03/27 05:39:47;;;;;;;9.50;4.70;;;;;;;7.82;62.90;99363.55;105311;1259;65997;-61
2023/03/27 05:42:15;;;;;;;8.00;5.00;;;;;;;7.93;62.60;99361.04;105119;1257;62767;-62
2023/03/27 05:44:44;;;;;;;7.70;4.90;;;;;;;8.04;62.39;99362.39;105293;1257;73618;-61
2023/03/27 05:47:14;;;;;;;8.00;4.60;;;;;;;8.10;62.41;99364.34;105445;1256;60565;-61
2023/03/27 05:49:42;;;;;;;7.30;4.50;;;;;;;8.16;62.33;99362.73;105463;1255;60565;-61
2023/03/27 05:52:15;;;;;;;7.80;5.10;;;;;;;8.22;62.03;99358.88;105429;1256;66259;-61
2023/03/27 05:54:44;;;;;;;7.60;5.10;;;;;;;8.29;61.94;99357.73;105531;1257;62675;-61
2023/03/27 05:57:12;;;;;;;7.50;4.90;;;;;;;8.36;61.91;99358.39;105530;1261;65035;-60
2023/03/27 05:59:43;;;;;;;8.10;4.40;;;;;;;8.41;62.01;99360.25;105871;1256;60525;-62
2023/03/27 06:02:22;;;;;;;7.20;4.00;;;;;;;8.45;62.01;99362.52;105834;1259;60438;-62
2023/03/27 06:04:57;;;;;;;6.30;3.90;;;;;;;8.56;61.90;99363.85;105597;1259;65926;-62
2023/03/27 06:07:30;;;;;;;4.30;1.30;;;;;;;8.74;61.53;99361.09;105413;1259;61638;-62
2023/03/27 06:10:04;;;;;;;10.30;4.90;;;;;;;8.91;61.29;99357.29;105208;1259;64903;-60
2023/03/27 06:13:00;;;;;;;4.80;2.30;;;;;;;9.09;61.07;99354.39;105198;1257;60455;-58
2023/03/27 06:15:46;;;;;;;9.00;4.00;;;;;;;9.22;60.74;99352.34;105252;1257;60534;-62
2023/03/27 06:18:18;;;;;;;7.50;4.30;;;;;;;9.32;60.56;99353.64;105636;1259;65981;-62
2023/03/27 06:20:50;;;;;;;6.70;4.10;;;;;;;9.40;60.25;99354.92;105364;1260;62719;-62
2023/03/27 06:23:19;;;;;;;7.20;4.40;;;;;;;9.49;59.90;99353.97;105434;1259;63829;-62
2023/03/27 06:25:47;;;;;;;7.40;4.40;;;;;;;9.55;59.62;99354.46;105337;1257;60462;-62
2023/03/27 06:28:16;;;;;;;7.60;4.50;;;;;;;9.61;59.60;99359.48;105501;1257;60607;-61
2023/03/27 06:30:46;;;;;;;6.90;4.30;;;;;;;9.67;59.51;99362.94;105355;1260;65911;-61
2023/03/27 06:33:47;;;;;;;7.50;3.80;;;;;;;9.74;59.40;99361.86;105434;1256;62600;-62
2023/03/27 06:36:36;;;;;;;9.10;4.80;;;;;;;9.87;59.43;99363.10;105138;1257;65009;-59
2023/03/27 06:39:07;;;;;;;7.10;4.10;;;;;;;10.00;59.07;99363.92;105445;1257;61721;-60
2023/03/27 06:41:35;;;;;;;6.90;4.10;;;;;;;10.08;58.77;99359.71;105334;1262;60511;-60
2023/03/27 06:44:33;;;;;;;9.10;4.60;;;;;;;10.11;58.82;99359.92;105278;1261;66222;-60
2023/03/27 06:47:16;;;;;;;6.90;3.60;;;;;;;10.19;58.73;99361.64;105370;1259;63055;-61
2023/03/27 06:49:50;;;;;;;8.00;4.30;;;;;;;10.26;58.67;99365.53;105377;1259;65030;-60
2023/03/27 06:52:22;;;;;;;8.40;4.20;;;;;;;10.33;58.53;99363.30;105300;1256;60478;-62
2023/03/27 06:54:51;;;;;;;6.80;3.90;;;;;;;10.37;58.42;99361.33;106822;1259;59553;-61
2023/03/27 06:57:22;;;;;;;7.30;3.80;;;;;;;10.43;58.57;99364.71;106825;1255;66158;-61
2023/03/27 06:59:56;;;;;;;6.70;3.50;;;;;;;10.52;58.51;99365.86;105572;1259;62352;-63
2023/03/27 07:02:42;;;;;;;;;;;;;;;10.69;58.39;99364.82;105922;1262;64033;-57
2023/03/27 07:05:30;;;;;;;6.50;3.70;;;;;;;10.84;58.44;99365.27;105483;1259;60709;-61
2023/03/27 07:07:59;;;;;;;6.70;3.30;;;;;;;10.94;58.35;99362.55;105354;1257;60450;-62
2023/03/27 07:10:43;;;;;;;4.80;2.80;;;;;;;11.04;58.21;99356.28;105559;1259;66534;-62
2023/03/27 07:13:24;;;;;;;5.70;3.10;;;;;;;11.14;58.01;99353.73;105421;1256;62558;-62
2023/03/27 07:15:53;;;;;;;5.50;3.00;;;;;;;11.23;57.76;99354.60;105491;1257;65068;-62
2023/03/27 07:18:23;;;;;;;6.40;2.90;;;;;;;11.30;57.61;99355.88;105613;1257;60562;-62
2023/03/27 07:20:55;;;;;;;5.90;2.90;;;;;;;11.35;57.34;99355.15;105494;1256;60478;-63
2023/03/27 07:23:24;;;;;;;5.30;3.20;;;;;;;11.41;57.23;99355.66;105659;1256;65078;-61
2023/03/27 07:25:59;;;;;;;6.00;2.90;;;;;;;11.51;57.06;99355.20;105364;1257;62819;-62
2023/03/27 07:28:46;;;;;;;7.20;2.60;;;;;;;11.66;56.60;99352.98;105459;1257;65112;-62
2023/03/27 07:31:16;;;;;;;5.40;2.40;;;;;;;11.80;56.20;99356.54;105500;1257;60469;-62
2023/03/27 07:33:48;;;;;;;4.70;2.50;;;;;;;11.88;55.99;99356.79;105587;1257;60418;-63
2023/03/27 07:36:17;;;;;;;5.70;2.80;;;;;;;11.93;55.96;99355.02;105497;1261;66011;-62
2023/03/27 07:39:12;;;;;;;5.50;2.90;;;;;;;12.02;55.81;99355.86;105349;1257;62237;-62
2023/03/27 07:41:41;;;;;;;6.20;3.20;;;;;;;12.14;55.91;99359.95;105485;1257;64851;-63
2023/03/27 07:44:35;;;;;;;5.80;3.00;;;;;;;12.26;55.79;99359.95;105209;1256;60581;-62
2023/03/27 07:47:06;;;;;;;6.50;2.80;;;;;;;12.35;55.80;99360.35;105502;1257;60476;-62
2023/03/27 07:49:35;;;;;;;5.20;3.10;;;;;;;12.44;55.49;99361.55;105484;1256;65178;-63
2023/03/27 07:52:11;;;;;;;5.30;2.60;;;;;;;12.54;54.90;99365.16;105462;1257;62355;-62
2023/03/27 07:54:50;;;;;;;5.00;2.90;;;;;;;12.61;54.01;99361.04;105451;1256;64528;-60
2023/03/27 07:57:20;;;;;;;5.70;2.80;;;;;;;12.67;53.81;99361.61;105543;1257;60577;-65
2023/03/27 07:59:51;;;;;;;5.20;2.80;;;;;;;12.74;53.24;99354.96;105876;1259;60393;-65
2023/03/27 08:02:40;;;;;;;7.00;2.70;;;;;;;12.79;52.55;99355.10;105875;1259;66283;-61
2023/03/27 08:05:10;;;;;;;6.00;2.70;;;;;;;12.83;52.70;99359.52;105395;1257;62576;-63
2023/03/27 08:07:41;;;;;;;5.40;2.40;;;;;;;12.91;52.37;99360.50;105413;1262;65310;-63
2023/03/27 08:10:12;;;;;;;6.70;2.50;;;;;;;12.95;51.38;99356.21;105386;1259;60978;-63
2023/03/27 08:12:52;;;;;;;4.60;1.80;;;;;;;12.95;51.26;99353.77;105480;1256;60911;-62
2023/03/27 08:15:21;;;;;;;5.60;2.30;;;;;;;12.96;50.58;99357.67;105534;1256;65890;-61
2023/03/27 08:17:55;;;;;;;5.50;1.90;;;;;;;12.96;50.66;99359.11;105462;1257;62637;-60
2023/03/27 08:20:25;;;;;;;4.90;2.20;;;;;;;12.96;50.99;99354.87;105526;1260;63838;-58
2023/03/27 08:22:54;;;;;;;4.20;1.90;;;;;;;13.00;51.33;99355.36;105385;1261;60568;-60
2023/03/27 08:25:33;;;;;;;4.60;1.80;;;;;;;13.06;51.03;99352.73;105536;1257;60457;-59
2023/03/27 08:28:06;;;;;;;5.00;2.10;;;;;;;13.11;50.82;99349.63;105448;1259;65896;-63
2023/03/27 08:30:35;;;;;;;4.60;1.70;;;;;;;13.17;50.47;99354.45;105463;1257;62645;-62
2023/03/27 08:33:04;;;;;;;3.60;1.50;;;;;;;13.25;50.48;99355.84;105369;1257;64701;-61
2023/03/27 08:35:33;;;;;;;4.20;1.80;;;;;;;13.34;50.01;99353.65;105399;1259;60451;-60
2023/03/27 08:38:03;;;;;;;4.10;1.60;;;;;;;13.41;49.24;99353.13;105457;1259;60436;-61
2023/03/27 08:41:03;;;;;;;4.00;1.50;;;;;;;13.51;48.69;99353.23;105370;1259;66408;-60
2023/03/27 08:43:40;;;;;;;3.70;1.60;;;;;;;13.61;48.97;99353.59;105423;1260;62603;-60
2023/03/27 08:46:22;;;;;;;3.90;1.30;;;;;;;13.74;48.73;99350.20;105504;1257;64991;-61
2023/03/27 08:49:07;;;;;;;3.70;1.50;;;;;;;13.89;47.50;99347.48;105693;1256;60508;-60
2023/03/27 08:51:54;;;;;;;4.40;1.50;;;;;;;14.00;46.82;99342.39;105316;1256;60581;-62
2023/03/27 08:54:26;;;;;;;4.60;1.60;;;;;;;14.13;46.16;99343.30;105856;1260;66126;-64
2023/03/27 08:56:55;;;;;;;4.10;1.40;;;;;;;14.23;45.54;99341.77;105591;1257;62851;-63
2023/03/27 08:59:29;;;;;;;3.90;1.60;;;;;;;14.30;44.98;99335.33;105500;1257;64741;-63
2023/03/27 09:02:06;;;;;;;4.20;1.50;;;;;;;14.39;44.29;99337.05;105479;1260;60578;-60
2023/03/27 09:04:50;;;;;;;3.90;1.30;;;;;;;14.49;44.59;99335.00;105439;1257;60513;-59
2023/03/27 09:07:40;;;;;;;3.70;1.30;;;;;;;14.63;44.92;99335.55;105479;1259;65888;-60
2023/03/27 09:10:45;;;;;;;3.10;1.20;;;;;;;14.81;44.77;99336.20;105400;1257;62431;-61
2023/03/27 09:13:50;;;;;;;3.10;1.10;;;;;;;15.01;44.98;99335.86;105446;1259;65067;-60
2023/03/27 09:16:48;;;;;;;5.40;1.50;;;;;;;15.21;44.89;99326.98;105421;1257;60510;-60
2023/03/27 09:19:37;;;;;;;4.60;1.60;;;;;;;15.43;44.16;99323.38;105342;1257;60549;-61
2023/03/27 09:22:15;;;;;;;3.40;1.10;;;;;;;15.63;43.91;99322.13;105300;1260;291867;-61
2023/03/27 09:37:41;;;;;;;4.40;1.50;;;;;;;16.11;41.82;99311.38;103200;1283;605444;-59
2023/03/27 09:40:32;;;;;;;3.20;1.10;;;;;;;16.60;40.19;99313.49;104694;1271;105058;-58
2023/03/27 09:43:11;;;;;;;3.00;1.20;;;;;;;16.58;39.38;99315.16;104780;1270;59286;-60
2023/03/27 09:45:40;;;;;;;3.90;1.40;;;;;;;16.52;39.45;99308.05;104946;1266;64862;-62
2023/03/27 09:48:26;;;;;;;7.00;1.60;;;;;;;16.51;39.87;99310.55;104819;1266;62678;-61
2023/03/27 09:50:55;;;;;;;4.30;1.60;;;;;;;16.55;40.02;99308.66;104882;1267;64019;-61
2023/03/27 09:53:31;;;;;;;4.80;1.70;;;;;;;16.57;40.69;99309.80;104933;1267;59252;-61
2023/03/27 09:56:17;;;;;;;3.70;1.40;;;;;;;16.59;41.71;99306.58;105500;1257;59270;-63
2023/03/27 09:58:49;;;;;;;4.60;1.90;;;;;;;16.61;40.87;99307.62;105458;1262;64223;-65
2023/03/27 10:01:33;;;;;;;5.50;1.80;;;;;;;16.58;39.38;99305.99;105458;1257;62496;-63
2023/03/27 10:04:22;;;;;;;4.60;1.80;;;;;;;16.52;39.32;99302.02;105764;1256;64959;-64
2023/03/27 10:07:07;;;;;;;4.50;1.90;;;;;;;16.52;39.04;99300.46;105354;1257;59746;-60
2023/03/27 10:10:16;;;;;;;4.90;1.60;;;;;;;16.60;38.84;99300.55;104824;1266;59777;-62
2023/03/27 10:13:08;;;;;;;4.20;1.60;;;;;;;16.71;38.70;99301.89;104828;1267;65384;-62
2023/03/27 10:15:41;;;;;;;;;;;;;;;16.75;38.21;99302.98;105210;1257;62679;-62
2023/03/27 10:18:25;;;;;;;3.40;1.10;;;;;;;16.72;38.58;99299.08;105437;1257;64735;-63
2023/03/27 10:21:08;;;;;;;4.00;1.30;;;;;;;16.75;39.27;99298.73;105385;1257;61178;-64
2023/03/27 10:23:43;;;;;;;3.70;1.20;;;;;;;16.81;38.96;99302.77;105567;1257;59641;-62
2023/03/27 10:26:20;;;;;;;3.80;1.40;;;;;;;16.79;38.19;99302.52;105453;1260;65009;-60
2023/03/27 10:28:53;;;;;;;5.00;1.40;;;;;;;16.73;38.38;99301.44;105383;1258;62647;-62
2023/03/27 10:31:27;;;;;;;;;;;;;;;16.70;38.45;99301.83;105609;1258;65047;-61
2023/03/27 10:34:42;;;;;;;5.30;1.50;;;;;;;16.68;38.62;99300.15;105435;1257;59895;-63
2023/03/27 10:37:30;;;;;;;5.40;1.40;;;;;;;16.68;38.44;99296.95;105439;1263;59814;-64
2023/03/27 10:40:14;;;;;;;5.20;1.60;;;;;;;16.68;38.49;99296.59;105479;1261;65431;-60
2023/03/27 10:42:45;;;;;;;3.70;1.30;;;;;;;16.74;38.70;99288.43;105445;1262;62666;-63
2023/03/27 10:45:15;;;;;;;4.30;1.40;;;;;;;16.84;39.38;99296.40;105426;1258;64775;-62
2023/03/27 10:47:49;;;;;;;4.10;1.60;;;;;;;17.01;39.46;99288.34;105644;1257;59881;-61
2023/03/27 10:50:29;;;;;;;4.20;1.10;;;;;;;17.19;38.56;99281.20;105067;1263;59680;-61
2023/03/27 10:53:31;;;;;;;4.90;1.40;;;;;;;17.29;37.41;99280.53;105353;1256;64060;-60
2023/03/27 10:56:19;;;;;;;12.00;1.90;;;;;;;17.22;37.24;99279.73;105167;1261;62864;-62
2023/03/27 10:58:50;;;;;;;8.10;1.60;;;;;;;17.21;37.57;99279.73;105110;1257;64804;-65
2023/03/27 11:01:34;;;;;;;4.30;1.30;;;;;;;17.28;37.42;99281.16;105067;1263;59755;-62
2023/03/27 11:04:18;;;;;;;4.60;1.70;;;;;;;17.33;36.88;99276.15;105291;1262;59670;-61
2023/03/27 11:06:51;;;;;;;5.90;1.60;;;;;;;17.29;37.10;99277.55;105187;1262;65044;-62
2023/03/27 11:09:32;;;;;;;3.10;1.10;;;;;;;17.25;37.30;99274.99;105602;1260;62740;-61
2023/03/27 11:12:10;;;;;;;7.00;1.40;;;;;;;17.22;37.66;99272.39;105317;1257;64733;-62
2023/03/27 11:15:06;;;;;;;5.00;1.60;;;;;;;17.13;37.55;99272.58;105162;1260;59586;-63
2023/03/27 11:17:46;;;;;;;14.00;1.70;;;;;;;17.09;38.24;99267.44;105318;1258;59752;-63
2023/03/27 11:20:22;;;;;;;;;;;;;;;17.15;38.59;99266.77;105330;1257;65656;-63
2023/03/27 11:23:27;;;;;;;3.50;1.40;;;;;;;17.17;38.29;99268.40;105380;1257;62390;-62
2023/03/27 11:26:15;;;;;;;6.30;1.70;;;;;;;17.17;38.25;99266.13;105377;1257;65068;-64
2023/03/27 11:28:45;;;;;;;5.20;1.40;;;;;;;17.15;37.74;99259.70;105201;1257;59715;-69
2023/03/27 11:31:36;;;;;;;8.00;1.70;;;;;;;17.15;37.87;99258.64;105405;1257;59756;-65
2023/03/27 11:34:12;;;;;;;4.20;1.60;;;;;;;17.18;38.04;99258.70;105419;1262;65362;-61
2023/03/27 11:37:04;;;;;;;4.20;1.50;;;;;;;17.23;38.19;99257.48;105324;1257;62807;-62
2023/03/27 11:39:52;;;;;;;4.70;1.00;;;;;;;17.38;37.31;99250.45;105426;1260;64727;-62
2023/03/27 11:42:22;;;;;;;3.80;1.20;;;;;;;17.60;36.51;99245.20;105352;1257;61057;-63
2023/03/27 11:44:51;;;;;;;3.90;1.20;;;;;;;17.70;35.40;99241.52;105321;1262;59661;-62
2023/03/27 11:47:57;;;;;;;3.50;0.90;;;;;;;17.76;35.16;99244.11;105478;1261;65243;-64
2023/03/27 11:50:32;;;;;;;5.60;1.30;;;;;;;17.77;34.52;99238.64;105417;1257;62361;-63
2023/03/27 11:53:26;;;;;;;5.10;1.70;;;;;;;17.72;35.24;99234.48;105348;1257;65030;-63
2023/03/27 11:56:17;;;;;;;3.80;1.20;;;;;;;17.69;35.83;99232.83;105587;1257;59777;-62
2023/03/27 11:59:03;;;;;;;;;;;;;;;17.60;35.29;99234.09;105355;1257;61278;-62
2023/03/27 12:01:55;;;;;;;5.00;1.20;;;;;;;17.53;35.22;99235.50;105280;1257;65442;-64
2023/03/27 12:05:15;;;;;;;3.90;1.50;;;;;;;17.54;35.85;99234.52;105416;1257;62527;-66
2023/03/27 12:07:58;;;;;;;5.20;1.20;;;;;;;17.57;34.91;99232.16;104871;1263;65196;-64
2023/03/27 12:10:37;;;;;;;4.30;1.30;;;;;;;17.58;34.74;99227.10;105373;1257;59525;-62
2023/03/27 12:13:18;;;;;;;4.90;1.20;;;;;;;17.55;34.81;99226.78;105371;1257;59775;-62
2023/03/27 12:15:46;;;;;;;2.90;1.20;;;;;;;17.48;34.68;99228.54;105323;1257;65399;-60
2023/03/27 12:18:28;;;;;;;3.50;1.40;;;;;;;17.38;34.77;99227.99;105256;1257;62658;-62
2023/03/27 12:21:12;;;;;;;4.10;1.40;;;;;;;17.27;34.86;99226.42;105263;1261;65057;-64
2023/03/27 12:24:08;;;;;;;3.50;1.10;;;;;;;17.20;34.88;99223.60;105246;1261;59995;-64
2023/03/27 12:27:04;;;;;;;3.30;1.50;;;;;;;17.18;34.82;99226.11;105571;1257;59791;-60
2023/03/27 12:29:44;;;;;;;4.70;1.50;;;;;;;17.19;34.62;99224.04;105349;1257;65091;-62
2023/03/27 12:32:28;;;;;;;5.40;1.50;;;;;;;17.24;34.93;99222.71;105358;1257;62475;-61
2023/03/27 12:34:59;;;;;;;3.50;1.40;;;;;;;17.35;34.77;99219.88;105427;1257;65005;-61
2023/03/27 12:37:42;;;;;;;4.20;1.60;;;;;;;17.41;34.37;99224.58;105276;1257;59708;-61